createdAt,value
2018-09-10T00:02:19.101Z,11.47
2018-09-10T00:04:49.757Z,14.10
2018-09-10T00:07:20.015Z,9.88
2018-09-10T00:09:49.875Z,9.37
2018-09-10T00:12:19.998Z,10.07
2018-09-10T00:14:49.953Z,13.07
2018-09-10T00:17:20.038Z,11.38
2018-09-10T00:19:49.950Z,10.93
2018-09-10T00:22:20.045Z,8.73
2018-09-10T00:24:49.971Z,12.77
2018-09-10T00:27:19.814Z,11.37
2018-09-10T00:29:49.796Z,7.77
2018-09-10T00:32:19.700Z,9.10
2018-09-10T00:34:49.506Z,10.10
2018-09-10T00:37:19.436Z,11.27
2018-09-10T00:39:49.745Z,9.43
2018-09-10T00:42:19.496Z,11.27
2018-09-10T00:44:50.145Z,10.32
2018-09-10T00:47:19.898Z,7.77
2018-09-10T00:49:49.645Z,11.75
2018-09-10T00:52:19.560Z,8.75
2018-09-10T00:54:49.759Z,10.95
2018-09-10T00:57:19.826Z,11.27
2018-09-10T00:59:49.609Z,10.35
2018-09-10T01:02:21.370Z,9.02
2018-09-10T01:04:51.216Z,9.83
2018-09-10T01:07:22.102Z,8.83
2018-09-10T01:09:53.161Z,12.25
2018-09-10T01:12:23.873Z,9.60
2018-09-10T01:14:55.311Z,11.88
2018-09-10T01:17:25.957Z,10.10
2018-09-10T01:19:56.978Z,7.47
2018-09-10T01:22:27.764Z,9.58
2018-09-10T01:24:59.218Z,10.92
2018-09-10T01:27:30.175Z,10.75
2018-09-10T01:30:01.101Z,9.03
2018-09-10T01:32:31.901Z,9.35
2018-09-10T01:35:03.471Z,8.90
2018-09-10T01:37:34.988Z,11.88
2018-09-10T01:40:05.625Z,11.20
2018-09-10T01:42:36.118Z,8.28
2018-09-10T01:45:07.464Z,9.18
2018-09-10T01:47:37.972Z,8.80
2018-09-10T01:50:08.925Z,8.15
2018-09-10T01:52:39.692Z,8.95
2018-09-10T01:55:11.131Z,9.86
2018-09-10T01:57:42.021Z,7.87
2018-09-10T02:00:12.916Z,10.03
2018-09-10T02:02:43.743Z,8.95
2018-09-10T02:05:15.060Z,11.28
2018-09-10T02:07:44.970Z,8.77
2018-09-10T02:10:15.935Z,9.05
2018-09-10T02:12:46.843Z,9.90
2018-09-10T02:15:17.794Z,8.78
2018-09-10T02:17:48.650Z,9.83
2018-09-10T02:20:20.215Z,8.74
2018-09-10T02:22:50.953Z,8.28
2018-09-10T02:25:21.974Z,9.50
2018-09-10T02:27:52.818Z,12.65
2018-09-10T02:30:24.079Z,10.48
2018-09-10T02:32:54.898Z,10.85
2018-09-10T02:35:25.756Z,9.08
2018-09-10T02:37:57.010Z,10.28
2018-09-10T02:40:28.315Z,10.15
2018-09-10T02:42:59.317Z,10.40
2018-09-10T02:45:30.051Z,9.05
2018-09-10T02:48:00.820Z,13.80
2018-09-10T02:50:32.233Z,10.44
2018-09-10T02:53:02.895Z,10.10
2018-09-10T02:55:33.817Z,12.35
2018-09-10T02:58:04.629Z,16.42
2018-09-10T03:00:36.081Z,12.72
2018-09-10T03:03:07.226Z,8.70
2018-09-10T03:05:38.484Z,11.88
2018-09-10T03:08:09.117Z,12.70
2018-09-10T03:10:40.101Z,11.45
2018-09-10T03:13:10.992Z,14.30
2018-09-10T03:15:42.196Z,8.78
2018-09-10T03:18:12.952Z,13.53
2018-09-10T03:20:43.866Z,10.05
2018-09-10T03:23:14.693Z,10.58
2018-09-10T03:25:47.554Z,12.62
2018-09-10T03:28:17.339Z,12.07
2018-09-10T03:30:48.329Z,12.73
2018-09-10T03:33:19.021Z,12.05
2018-09-10T03:35:50.103Z,11.53
2018-09-10T03:38:21.038Z,14.07
2018-09-10T03:40:52.072Z,10.85
2018-09-10T03:43:22.964Z,13.00
2018-09-10T03:45:57.853Z,11.20
2018-09-10T03:48:27.803Z,14.55
2018-09-10T03:50:57.679Z,10.93
2018-09-10T03:53:27.472Z,17.70
2018-09-10T03:55:58.090Z,15.60
2018-09-10T03:58:29.192Z,13.68
2018-09-10T04:00:59.992Z,18.90
2018-09-10T04:03:30.885Z,17.50
2018-09-10T04:06:01.920Z,18.37
2018-09-10T04:08:33.076Z,24.30
2018-09-10T04:11:03.995Z,27.70
2018-09-10T04:13:34.947Z,21.82
2018-09-10T04:16:05.841Z,24.43
2018-09-10T04:18:36.987Z,22.00
2018-09-10T04:21:07.937Z,21.57
2018-09-10T04:23:38.940Z,19.73
2018-09-10T04:26:10.217Z,22.90
2018-09-10T04:28:41.172Z,25.80
2018-09-10T04:31:12.379Z,21.23
2018-09-10T04:33:42.937Z,24.18
2018-09-10T04:36:15.936Z,19.10
2018-09-10T04:38:45.930Z,18.55
2018-09-10T04:41:15.823Z,23.30
2018-09-10T04:43:46.704Z,20.00
2018-09-10T04:46:18.205Z,18.64
2018-09-10T04:48:48.962Z,17.73
2018-09-10T04:51:19.732Z,25.55
2018-09-10T04:53:51.143Z,22.92
2018-09-10T04:56:21.929Z,23.12
2018-09-10T04:58:52.917Z,28.35
2018-09-10T05:01:23.718Z,20.75
2018-09-10T05:03:55.744Z,22.94
2018-09-10T05:06:25.596Z,25.75
2018-09-10T05:08:57.426Z,19.08
2018-09-10T05:11:28.038Z,25.02
2018-09-10T05:13:59.069Z,22.48
2018-09-10T05:16:29.885Z,22.93
2018-09-10T05:19:00.871Z,22.10
2018-09-10T05:21:31.752Z,22.55
2018-09-10T05:24:03.172Z,21.44
2018-09-10T05:26:34.065Z,18.45
2018-09-10T05:29:05.033Z,21.40
2018-09-10T05:31:35.533Z,26.90
2018-09-10T05:34:06.401Z,19.70
2018-09-10T05:36:37.094Z,22.00
2018-09-10T05:39:09.246Z,25.75
2018-09-10T05:41:39.258Z,18.23
2018-09-10T05:44:09.345Z,20.30
2018-09-10T05:46:39.914Z,19.05
2018-09-10T05:49:10.788Z,18.27
2018-09-10T05:51:42.020Z,18.14
2018-09-10T05:54:13.287Z,16.82
2018-09-10T05:56:43.894Z,26.33
2018-09-10T05:59:15.030Z,16.97
2018-09-10T06:01:45.819Z,17.42
2018-09-10T06:04:17.308Z,17.10
2018-09-10T06:06:48.086Z,17.37
2018-09-10T06:09:19.158Z,12.75
2018-09-10T06:11:49.956Z,18.23
2018-09-10T06:14:19.918Z,17.53
2018-09-10T06:16:51.201Z,12.45
2018-09-10T06:19:22.208Z,13.05
2018-09-10T06:21:52.914Z,14.45
2018-09-10T06:24:23.796Z,13.25
2018-09-10T06:26:54.856Z,20.88
2018-09-10T06:29:25.742Z,13.43
2018-09-10T06:31:57.368Z,13.43
2018-09-10T06:34:28.051Z,11.18
2018-09-10T06:36:59.159Z,12.53
2018-09-10T06:39:30.379Z,12.95
2018-09-10T06:42:00.443Z,13.10
2018-09-10T06:44:30.973Z,12.10
2018-09-10T06:47:01.816Z,12.58
2018-09-10T06:49:32.976Z,9.12
2018-09-10T06:52:05.440Z,8.95
2018-09-10T06:54:35.198Z,12.37
2018-09-10T06:57:05.928Z,10.70
2018-09-10T06:59:36.976Z,11.88
2018-09-10T07:02:07.710Z,9.45
2018-09-10T07:04:39.054Z,13.22
2018-09-10T07:07:09.770Z,16.75
2018-09-10T07:09:40.879Z,7.67
2018-09-10T07:12:12.492Z,17.50
2018-09-10T07:14:43.254Z,8.96
2018-09-10T07:17:14.048Z,11.25
2018-09-10T07:19:45.050Z,13.58
2018-09-10T07:22:15.843Z,9.65
2018-09-10T07:24:46.840Z,10.23
2018-09-10T07:27:17.909Z,13.98
2018-09-10T07:29:48.764Z,9.43
2018-09-10T07:32:19.609Z,10.55
2018-09-10T07:34:51.145Z,12.96
2018-09-10T07:37:22.327Z,18.40
2018-09-10T07:39:53.211Z,7.87
2018-09-10T07:42:23.970Z,11.03
2018-09-10T07:44:54.991Z,10.25
2018-09-10T07:47:25.765Z,13.35
2018-09-10T07:49:56.866Z,13.10
2018-09-10T07:52:27.669Z,9.25
2018-09-10T07:55:03.934Z,10.74
2018-09-10T07:57:33.738Z,16.05
2018-09-10T08:00:03.895Z,12.75
2018-09-10T08:02:33.706Z,8.30
2018-09-10T08:05:03.462Z,7.37
2018-09-10T08:07:34.082Z,10.93
2018-09-10T08:10:05.405Z,8.10
2018-09-10T08:12:36.063Z,7.17
2018-09-10T08:15:07.032Z,9.20
2018-09-10T08:17:37.835Z,7.53
2018-09-10T08:20:08.733Z,8.98
2018-09-10T08:22:40.010Z,7.24
2018-09-10T08:25:10.776Z,6.10
2018-09-10T08:27:42.040Z,8.13
2018-09-10T08:30:13.084Z,9.78
2018-09-10T08:32:44.127Z,6.42
2018-09-10T08:35:14.946Z,7.28
2018-09-10T08:37:45.992Z,4.80
2018-09-10T08:40:16.761Z,4.72
2018-09-10T08:42:48.111Z,5.22
2018-09-10T08:45:18.945Z,7.25
2018-09-10T08:47:49.680Z,6.60
2018-09-10T08:50:20.924Z,6.78
2018-09-10T08:52:51.987Z,7.47
2018-09-10T08:55:22.795Z,9.60
2018-09-10T08:57:54.626Z,8.20
2018-09-10T09:00:25.098Z,9.70
2018-09-10T09:02:56.080Z,4.60
2018-09-10T09:05:27.658Z,5.25
2018-09-10T09:07:58.067Z,9.27
2018-09-10T09:10:29.041Z,8.55
2018-09-10T09:12:59.963Z,7.10
2018-09-10T09:15:30.746Z,6.28
2018-09-10T09:18:02.173Z,5.05
2018-09-10T09:20:33.958Z,8.18
2018-09-10T09:23:03.765Z,8.00
2018-09-10T09:25:34.626Z,4.85
2018-09-10T09:28:09.830Z,4.78
2018-09-10T09:30:39.704Z,4.93
2018-09-10T09:33:09.497Z,4.33
2018-09-10T09:35:44.294Z,3.57
2018-09-10T09:38:18.891Z,3.50
2018-09-10T09:40:53.424Z,2.87
2018-09-10T09:43:28.267Z,2.97
2018-09-10T09:46:02.967Z,7.23
2018-09-10T09:48:32.854Z,2.77
2018-09-10T09:51:03.123Z,11.03
2018-09-10T09:53:32.782Z,3.67
2018-09-10T09:56:02.887Z,3.60
2018-09-10T09:58:32.816Z,4.33
2018-09-10T10:01:07.901Z,5.03
2018-09-10T10:03:42.782Z,3.20
2018-09-10T10:06:12.835Z,5.80
2018-09-10T10:08:43.316Z,2.93
2018-09-10T10:11:13.033Z,7.63
2018-09-10T10:13:42.849Z,3.23
2018-09-10T10:16:12.742Z,3.13
2018-09-10T10:18:42.767Z,3.35
2018-09-10T10:21:12.876Z,3.25
2018-09-10T10:23:42.612Z,4.30
2018-09-10T10:26:15.213Z,5.97
2018-09-10T10:28:45.148Z,5.10
2018-09-10T10:31:15.626Z,6.30
2018-09-10T10:33:45.666Z,5.10
2018-09-10T10:36:15.989Z,3.65
2018-09-10T10:38:45.791Z,5.67
2018-09-10T10:41:15.506Z,4.83
2018-09-10T10:43:45.318Z,4.83
2018-09-10T10:46:15.609Z,7.95
2018-09-10T10:48:45.291Z,16.80
2018-09-10T10:51:15.129Z,15.50
2018-09-10T10:53:44.843Z,21.10
2018-09-10T10:56:14.704Z,22.93
2018-09-10T10:58:44.560Z,13.60
2018-09-10T11:01:14.405Z,7.37
2018-09-10T11:03:44.111Z,5.13
2018-09-10T11:06:15.087Z,5.28
2018-09-10T11:08:45.921Z,6.20
2018-09-10T11:11:17.378Z,3.10
2018-09-10T11:13:48.095Z,4.83
2018-09-10T11:16:19.100Z,2.30
2018-09-10T11:18:49.996Z,5.17
2018-09-10T11:21:21.116Z,4.97
2018-09-10T11:23:52.033Z,3.02
2018-09-10T11:26:23.079Z,3.67
2018-09-10T11:28:54.103Z,4.70
2018-09-10T11:31:27.876Z,3.00
2018-09-10T11:33:57.897Z,4.53
2018-09-10T11:36:28.077Z,2.80
2018-09-10T11:38:58.004Z,4.08
2018-09-10T11:41:28.058Z,3.07
2018-09-10T11:43:58.966Z,3.72
2018-09-10T11:46:29.833Z,6.25
2018-09-10T11:49:00.604Z,3.90
2018-09-10T11:51:31.778Z,5.30
2018-09-10T11:54:02.563Z,2.60
2018-09-10T11:56:33.891Z,3.22
2018-09-10T11:59:05.129Z,3.83
2018-09-10T12:01:36.156Z,3.10
2018-09-10T12:04:07.242Z,6.42
2018-09-10T12:06:37.962Z,2.52
2018-09-10T12:09:10.303Z,5.95
2018-09-10T12:11:40.333Z,7.40
2018-09-10T12:14:10.817Z,3.05
2018-09-10T12:16:41.596Z,3.58
2018-09-10T12:19:12.893Z,4.46
2018-09-10T12:21:43.595Z,2.45
2018-09-10T12:24:14.992Z,3.06
2018-09-10T12:26:45.773Z,3.40
2018-09-10T12:29:16.598Z,4.22
2018-09-10T12:31:48.229Z,3.48
2018-09-10T12:34:20.320Z,2.40
2018-09-10T12:36:50.382Z,3.67
2018-09-10T12:39:20.788Z,5.70
2018-09-10T12:41:51.661Z,6.72
2018-09-10T12:44:22.231Z,3.27
2018-09-10T12:46:52.857Z,4.30
2018-09-10T12:49:23.535Z,2.60
2018-09-10T12:51:55.137Z,3.86
2018-09-10T12:54:25.784Z,6.33
2018-09-10T12:56:57.016Z,5.72
2018-09-10T12:59:27.689Z,5.60
2018-09-10T13:01:59.117Z,6.08
2018-09-10T13:04:29.754Z,2.75
2018-09-10T13:07:01.501Z,3.00
2018-09-10T13:09:32.169Z,2.54
2018-09-10T13:12:03.082Z,3.60
2018-09-10T13:14:33.704Z,3.05
2018-09-10T13:17:05.001Z,4.58
2018-09-10T13:19:35.618Z,4.60
2018-09-10T13:22:06.942Z,3.78
2018-09-10T13:24:37.602Z,6.65
2018-09-10T13:27:08.977Z,2.46
2018-09-10T13:29:39.644Z,5.08
2018-09-10T13:32:10.289Z,8.15
2018-09-10T13:34:40.728Z,1.60
2018-09-10T13:37:11.767Z,3.75
2018-09-10T13:39:43.634Z,2.05
2018-09-10T13:42:13.581Z,4.40
2018-09-10T13:44:44.905Z,2.26
2018-09-10T13:47:15.734Z,3.05
2018-09-10T13:49:46.648Z,2.10
2018-09-10T13:52:18.035Z,2.32
2018-09-10T13:54:48.652Z,5.65
2018-09-10T13:57:19.889Z,2.14
2018-09-10T13:59:50.666Z,3.17
2018-09-10T14:02:21.949Z,2.77
2018-09-10T14:04:52.580Z,5.22
2018-09-10T14:07:24.148Z,5.10
2018-09-10T14:09:54.764Z,20.48
2018-09-10T14:12:26.327Z,7.48
2018-09-10T14:14:56.755Z,2.98
2018-09-10T14:17:27.597Z,2.65
2018-09-10T14:19:58.873Z,1.92
2018-09-10T14:22:29.701Z,2.92
2018-09-10T14:25:00.860Z,4.26
2018-09-10T14:27:32.040Z,4.65
2018-09-10T14:30:02.771Z,10.93
2018-09-10T14:32:34.141Z,4.22
2018-09-10T14:35:04.941Z,2.77
2018-09-10T14:37:35.752Z,2.20
2018-09-10T14:40:06.566Z,5.25
2018-09-10T14:42:38.021Z,5.15
2018-09-10T14:45:08.725Z,2.20
2018-09-10T14:47:39.809Z,2.08
2018-09-10T14:50:10.653Z,2.77
2018-09-10T14:52:41.950Z,4.22
2018-09-10T14:55:12.617Z,2.35
2018-09-10T14:57:44.323Z,1.96
2018-09-10T15:00:19.671Z,2.00
2018-09-10T15:02:49.655Z,3.83
2018-09-10T15:05:19.414Z,3.20
2018-09-10T15:07:49.754Z,2.20
2018-09-10T15:10:19.824Z,3.90
2018-09-10T15:12:49.742Z,1.90
2018-09-10T15:15:20.898Z,4.42
2018-09-10T15:17:51.838Z,1.65
2018-09-10T15:20:22.897Z,4.28
2018-09-10T15:22:57.002Z,7.55
2018-09-10T15:25:27.094Z,2.17
2018-09-10T15:27:56.871Z,3.67
2018-09-10T15:30:27.409Z,2.50
2018-09-10T15:32:59.684Z,3.55
2018-09-10T15:35:29.712Z,4.53
2018-09-10T15:37:59.984Z,2.70
2018-09-10T15:40:31.308Z,5.47
2018-09-10T15:43:02.876Z,3.38
2018-09-10T15:45:33.057Z,4.03
2018-09-10T15:48:03.721Z,3.75
2018-09-10T15:50:34.865Z,3.45
2018-09-10T15:53:05.542Z,6.20
2018-09-10T15:55:38.664Z,3.18
2018-09-10T15:58:08.464Z,5.90
2018-09-10T16:00:38.960Z,7.44
2018-09-10T16:03:09.743Z,3.12
2018-09-10T16:05:40.559Z,2.95
2018-09-10T16:08:12.012Z,6.20
2018-09-10T16:10:42.663Z,4.72
2018-09-10T16:13:14.194Z,6.24
2018-09-10T16:15:44.737Z,5.58
2018-09-10T16:18:15.831Z,4.87
2018-09-10T16:20:46.758Z,3.95
2018-09-10T16:23:17.932Z,4.03
2018-09-10T16:25:48.575Z,5.12
2018-09-10T16:28:20.262Z,5.48
2018-09-10T16:30:51.635Z,8.52
2018-09-10T16:33:22.005Z,6.62
2018-09-10T16:35:52.765Z,21.70
2018-09-10T16:38:24.111Z,13.22
2018-09-10T16:40:55.040Z,9.38
2018-09-10T16:43:25.762Z,6.00
2018-09-10T16:45:56.788Z,6.17
2018-09-10T16:48:27.872Z,4.47
2018-09-10T16:50:58.967Z,9.73
2018-09-10T16:53:29.752Z,6.65
2018-09-10T16:56:00.905Z,6.65
2018-09-10T16:58:31.789Z,9.78
2018-09-10T17:01:02.883Z,7.50
2018-09-10T17:03:33.660Z,5.28
2018-09-10T17:06:05.185Z,8.16
2018-09-10T17:08:36.010Z,6.03
2018-09-10T17:11:06.956Z,5.03
2018-09-10T17:13:38.461Z,10.53
2018-09-10T17:16:09.383Z,8.42
2018-09-10T17:18:39.901Z,12.53
2018-09-10T17:21:12.244Z,11.30
2018-09-10T17:23:42.297Z,7.60
2018-09-10T17:26:12.939Z,10.88
2018-09-10T17:28:45.794Z,8.40
2018-09-10T17:31:16.044Z,10.77
2018-09-10T17:33:46.041Z,7.50
2018-09-10T17:39:27.225Z,26.33
2018-09-10T17:41:57.173Z,48.60
2018-09-10T17:44:32.337Z,46.00
2018-09-10T17:47:02.360Z,29.27
2018-09-10T17:49:32.186Z,23.73
2018-09-10T17:52:02.133Z,35.63
2018-09-10T17:54:32.288Z,29.50
2018-09-10T17:57:02.124Z,26.33
2018-09-10T17:59:32.193Z,26.13
2018-09-10T18:02:02.089Z,28.90
2018-09-10T18:04:32.534Z,25.07
2018-09-10T18:07:02.466Z,23.63
2018-09-10T18:09:32.765Z,41.70
2018-09-10T18:12:02.721Z,34.97
2018-09-10T18:14:32.636Z,48.20
2018-09-10T18:17:03.596Z,45.60
2018-09-10T18:19:33.469Z,39.73
2018-09-10T18:22:03.402Z,34.23
2018-09-10T18:24:33.230Z,31.87
2018-09-10T18:27:03.994Z,28.20
2018-09-10T18:29:34.015Z,25.47
2018-09-10T18:32:03.878Z,24.63
2018-09-10T18:34:34.024Z,25.83
2018-09-10T18:37:03.986Z,28.27
2018-09-10T18:39:34.258Z,31.37
2018-09-10T18:42:04.095Z,26.63
2018-09-10T18:44:34.061Z,26.50
2018-09-10T18:47:04.116Z,27.73
2018-09-10T18:49:33.905Z,30.87
2018-09-10T18:52:04.190Z,26.90
2018-09-10T18:54:33.928Z,25.80
2018-09-10T18:57:05.651Z,32.10
2018-09-10T18:59:35.541Z,25.03
2018-09-10T19:02:05.333Z,25.17
2018-09-10T19:04:35.162Z,31.20
2018-09-10T19:07:05.497Z,31.25
2018-09-10T19:09:35.643Z,22.80
2018-09-10T19:12:05.367Z,23.83
2018-09-10T19:14:35.920Z,22.95
2018-09-10T19:17:05.757Z,19.93
2018-09-10T19:19:35.717Z,17.43
2018-09-10T19:22:05.558Z,17.90
2018-09-10T19:24:35.301Z,18.80
2018-09-10T19:27:05.670Z,16.45
2018-09-10T19:29:35.416Z,24.93
2018-09-10T19:32:05.095Z,16.05
2018-09-10T19:34:34.984Z,15.90
2018-09-10T19:37:04.774Z,19.30
2018-09-10T19:39:34.570Z,17.47
2018-09-10T19:42:05.120Z,19.22
2018-09-10T19:44:36.010Z,18.10
2018-09-10T19:47:07.038Z,15.10
2018-09-10T19:49:38.766Z,20.05
2018-09-10T19:52:08.678Z,20.55
2018-09-10T19:54:39.948Z,18.20
2018-09-10T19:57:11.004Z,16.40
2018-09-10T19:59:41.730Z,16.60
2018-09-10T20:02:13.047Z,11.54
2018-09-10T20:04:43.786Z,13.05
2018-09-10T20:07:15.390Z,11.54
2018-09-10T20:09:45.984Z,13.38
2018-09-10T20:12:17.335Z,10.55
2018-09-10T20:14:48.455Z,14.35
2018-09-10T20:17:18.914Z,12.80
2018-09-10T20:19:50.016Z,20.23
2018-09-10T20:22:22.421Z,11.00
2018-09-10T20:24:52.250Z,14.50
2018-09-10T20:27:23.040Z,9.80
2018-09-10T20:29:53.869Z,7.65
2018-09-10T20:32:24.769Z,10.20
2018-09-10T20:34:55.572Z,9.65
2018-09-10T20:37:27.060Z,6.92
2018-09-10T20:39:58.765Z,9.13
2018-09-10T20:42:28.822Z,12.10
2018-09-10T20:44:59.663Z,7.22
2018-09-10T20:47:31.310Z,7.40
2018-09-10T20:50:02.134Z,7.62
2018-09-10T20:52:33.004Z,6.17
2018-09-10T20:55:03.745Z,8.43
2018-09-10T20:57:34.643Z,5.53
2018-09-10T21:00:06.041Z,6.46
2018-09-10T21:02:36.801Z,7.97
2018-09-10T21:05:07.667Z,7.65
2018-09-10T21:07:39.368Z,5.72
2018-09-10T21:10:09.870Z,6.58
2018-09-10T21:12:41.000Z,5.62
2018-09-10T21:15:11.863Z,4.75
2018-09-10T21:17:42.661Z,6.53
2018-09-10T21:20:14.069Z,10.86
2018-09-10T21:22:44.986Z,8.78
2018-09-10T21:25:15.699Z,7.28
2018-09-10T21:27:47.048Z,8.54
2018-09-10T21:30:17.823Z,5.15
2018-09-10T21:32:48.777Z,6.45
2018-09-10T21:35:20.418Z,5.28
2018-09-10T21:37:51.057Z,7.53
2018-09-10T21:40:21.780Z,11.30
2018-09-10T21:42:53.046Z,6.40
2018-09-10T21:45:23.755Z,8.33
2018-09-10T21:47:54.792Z,5.28
2018-09-10T21:50:25.589Z,11.08
2018-09-10T21:52:57.115Z,6.84
2018-09-10T21:55:27.818Z,6.80
2018-09-10T21:57:59.004Z,8.23
2018-09-10T22:00:30.652Z,6.42
2018-09-10T22:03:01.256Z,11.56
2018-09-10T22:05:32.005Z,7.20
2018-09-10T22:08:02.881Z,7.95
2018-09-10T22:10:33.685Z,8.75
2018-09-10T22:13:04.808Z,12.53
2018-09-10T22:15:35.677Z,6.62
2018-09-10T22:18:07.135Z,8.68
2018-09-10T22:20:37.839Z,7.00
2018-09-10T22:23:08.786Z,7.12
2018-09-10T22:25:39.651Z,11.97
2018-09-10T22:28:11.175Z,10.18
2018-09-10T22:30:41.892Z,7.92
2018-09-10T22:33:12.709Z,7.22
2018-09-10T22:35:43.571Z,7.95
2018-09-10T22:38:14.957Z,8.22
2018-09-10T22:40:45.813Z,10.25
2018-09-10T22:43:16.773Z,9.03
2018-09-10T22:45:48.090Z,9.98
2018-09-10T22:48:18.940Z,7.00
2018-09-10T22:50:49.623Z,8.35
2018-09-10T22:53:20.993Z,10.32
2018-09-10T22:55:51.688Z,7.90
2018-09-10T22:58:23.061Z,6.98
2018-09-10T23:00:53.910Z,12.05
2018-09-10T23:03:24.846Z,7.62
2018-09-10T23:05:55.608Z,10.78
2018-09-10T23:08:27.001Z,10.06
2018-09-10T23:10:57.727Z,5.97
2018-09-10T23:13:29.012Z,7.22
2018-09-10T23:15:59.793Z,9.20
2018-09-10T23:18:30.874Z,10.08
2018-09-10T23:21:01.636Z,9.53
2018-09-10T23:23:33.020Z,11.78
2018-09-10T23:26:03.725Z,9.68
2018-09-10T23:28:39.957Z,14.78
2018-09-10T23:31:09.689Z,8.03
2018-09-10T23:33:39.529Z,12.10
2018-09-10T23:36:09.796Z,10.25
2018-09-10T23:38:39.530Z,8.03
2018-09-10T23:41:09.989Z,8.78
2018-09-10T23:43:40.792Z,12.65
2018-09-10T23:46:11.728Z,10.18
2018-09-10T23:48:42.896Z,7.86
2018-09-10T23:51:13.990Z,10.25
2018-09-10T23:53:44.693Z,10.45
2018-09-10T23:56:15.941Z,11.42
2018-09-10T23:58:46.683Z,8.75
